sensor_id;sensor_type;location;lat;lon;timestamp;P1;durP1;ratioP1;P2;durP2;ratioP2
33786;SDS011;29742;51.540;9.358;2023-08-12T00:02:40;1.17;;;1.05;;
33786;SDS011;29742;51.540;9.358;2023-08-12T00:07:41;3.17;;;0.88;;
33786;SDS011;29742;51.540;9.358;2023-08-12T00:12:42;1.23;;;0.90;;
33786;SDS011;29742;51.540;9.358;2023-08-12T00:17:42;1.38;;;0.95;;
33786;SDS011;29742;51.540;9.358;2023-08-12T00:22:43;1.23;;;0.70;;
33786;SDS011;29742;51.540;9.358;2023-08-12T00:27:44;1.13;;;0.90;;
33786;SDS011;29742;51.540;9.358;2023-08-12T00:32:44;0.98;;;0.95;;
33786;SDS011;29742;51.540;9.358;2023-08-12T00:37:45;0.73;;;0.65;;
33786;SDS011;29742;51.540;9.358;2023-08-12T00:42:45;0.65;;;0.63;;
33786;SDS011;29742;51.540;9.358;2023-08-12T00:47:47;1.63;;;1.00;;
33786;SDS011;29742;51.540;9.358;2023-08-12T00:52:47;1.23;;;1.10;;
33786;SDS011;29742;51.540;9.358;2023-08-12T00:57:49;0.50;;;0.50;;
33786;SDS011;29742;51.540;9.358;2023-08-12T01:02:50;1.45;;;0.88;;
33786;SDS011;29742;51.540;9.358;2023-08-12T01:07:51;1.05;;;0.75;;
33786;SDS011;29742;51.540;9.358;2023-08-12T01:12:54;0.75;;;0.70;;
33786;SDS011;29742;51.540;9.358;2023-08-12T01:17:59;0.73;;;0.60;;
33786;SDS011;29742;51.540;9.358;2023-08-12T01:23:10;0.98;;;0.70;;
33786;SDS011;29742;51.540;9.358;2023-08-12T01:28:11;1.17;;;0.80;;
33786;SDS011;29742;51.540;9.358;2023-08-12T01:33:14;0.90;;;0.68;;
33786;SDS011;29742;51.540;9.358;2023-08-12T01:38:24;1.00;;;0.73;;
33786;SDS011;29742;51.540;9.358;2023-08-12T01:43:26;0.80;;;0.77;;
33786;SDS011;29742;51.540;9.358;2023-08-12T01:48:26;1.30;;;0.65;;
33786;SDS011;29742;51.540;9.358;2023-08-12T01:53:27;0.88;;;0.63;;
33786;SDS011;29742;51.540;9.358;2023-08-12T01:58:27;0.60;;;0.57;;
33786;SDS011;29742;51.540;9.358;2023-08-12T02:03:28;0.77;;;0.70;;
33786;SDS011;29742;51.540;9.358;2023-08-12T02:08:28;1.10;;;0.98;;
33786;SDS011;29742;51.540;9.358;2023-08-12T02:13:29;1.17;;;0.85;;
33786;SDS011;29742;51.540;9.358;2023-08-12T02:18:29;1.70;;;1.45;;
33786;SDS011;29742;51.540;9.358;2023-08-12T02:23:30;1.10;;;0.93;;
33786;SDS011;29742;51.540;9.358;2023-08-12T02:28:30;1.08;;;1.00;;
33786;SDS011;29742;51.540;9.358;2023-08-12T02:33:30;1.20;;;1.10;;
33786;SDS011;29742;51.540;9.358;2023-08-12T02:38:31;1.70;;;1.10;;
33786;SDS011;29742;51.540;9.358;2023-08-12T02:43:31;0.98;;;0.88;;
33786;SDS011;29742;51.540;9.358;2023-08-12T02:48:32;1.13;;;1.00;;
33786;SDS011;29742;51.540;9.358;2023-08-12T02:53:32;1.10;;;1.00;;
33786;SDS011;29742;51.540;9.358;2023-08-12T02:58:32;1.15;;;0.90;;
33786;SDS011;29742;51.540;9.358;2023-08-12T03:03:34;1.95;;;0.90;;
33786;SDS011;29742;51.540;9.358;2023-08-12T03:08:34;1.17;;;0.98;;
33786;SDS011;29742;51.540;9.358;2023-08-12T03:13:35;1.02;;;0.75;;
33786;SDS011;29742;51.540;9.358;2023-08-12T03:18:35;1.10;;;0.90;;
33786;SDS011;29742;51.540;9.358;2023-08-12T03:23:36;0.80;;;0.80;;
33786;SDS011;29742;51.540;9.358;2023-08-12T03:28:37;1.27;;;0.88;;
33786;SDS011;29742;51.540;9.358;2023-08-12T03:33:37;0.80;;;0.80;;
33786;SDS011;29742;51.540;9.358;2023-08-12T03:38:37;1.10;;;1.00;;
33786;SDS011;29742;51.540;9.358;2023-08-12T03:43:38;1.05;;;0.88;;
33786;SDS011;29742;51.540;9.358;2023-08-12T03:48:38;1.63;;;1.40;;
33786;SDS011;29742;51.540;9.358;2023-08-12T03:53:39;1.73;;;0.90;;
33786;SDS011;29742;51.540;9.358;2023-08-12T03:58:39;0.95;;;0.75;;
33786;SDS011;29742;51.540;9.358;2023-08-12T04:03:39;1.27;;;1.05;;
33786;SDS011;29742;51.540;9.358;2023-08-12T04:08:40;1.58;;;1.10;;
33786;SDS011;29742;51.540;9.358;2023-08-12T04:13:40;2.40;;;0.80;;
33786;SDS011;29742;51.540;9.358;2023-08-12T04:18:40;2.00;;;1.05;;
33786;SDS011;29742;51.540;9.358;2023-08-12T04:23:42;2.55;;;1.05;;
33786;SDS011;29742;51.540;9.358;2023-08-12T04:28:42;1.13;;;1.00;;
33786;SDS011;29742;51.540;9.358;2023-08-12T04:33:43;0.93;;;0.85;;
33786;SDS011;29742;51.540;9.358;2023-08-12T04:38:43;0.98;;;0.80;;
33786;SDS011;29742;51.540;9.358;2023-08-12T04:43:44;0.88;;;0.85;;
33786;SDS011;29742;51.540;9.358;2023-08-12T04:48:44;1.00;;;0.82;;
33786;SDS011;29742;51.540;9.358;2023-08-12T04:53:45;0.77;;;0.77;;
33786;SDS011;29742;51.540;9.358;2023-08-12T04:58:46;1.33;;;0.88;;
33786;SDS011;29742;51.540;9.358;2023-08-12T05:03:46;1.00;;;0.90;;
33786;SDS011;29742;51.540;9.358;2023-08-12T05:08:46;0.52;;;0.52;;
33786;SDS011;29742;51.540;9.358;2023-08-12T05:13:47;1.55;;;0.93;;
33786;SDS011;29742;51.540;9.358;2023-08-12T05:18:47;1.25;;;1.00;;
33786;SDS011;29742;51.540;9.358;2023-08-12T05:23:47;1.40;;;1.13;;
33786;SDS011;29742;51.540;9.358;2023-08-12T05:28:48;1.00;;;0.90;;
33786;SDS011;29742;51.540;9.358;2023-08-12T05:33:48;1.80;;;1.02;;
33786;SDS011;29742;51.540;9.358;2023-08-12T05:38:49;0.80;;;0.73;;
33786;SDS011;29742;51.540;9.358;2023-08-12T05:43:49;3.35;;;1.25;;
33786;SDS011;29742;51.540;9.358;2023-08-12T05:48:49;2.03;;;0.85;;
33786;SDS011;29742;51.540;9.358;2023-08-12T05:53:50;0.95;;;0.82;;
33786;SDS011;29742;51.540;9.358;2023-08-12T05:58:50;1.40;;;0.98;;
33786;SDS011;29742;51.540;9.358;2023-08-12T06:03:50;1.33;;;0.80;;
33786;SDS011;29742;51.540;9.358;2023-08-12T06:08:51;1.17;;;0.65;;
33786;SDS011;29742;51.540;9.358;2023-08-12T06:13:51;1.42;;;0.73;;
33786;SDS011;29742;51.540;9.358;2023-08-12T06:18:52;1.15;;;0.77;;
33786;SDS011;29742;51.540;9.358;2023-08-12T06:23:52;1.00;;;0.88;;
33786;SDS011;29742;51.540;9.358;2023-08-12T06:28:52;0.98;;;0.88;;
33786;SDS011;29742;51.540;9.358;2023-08-12T06:33:53;1.35;;;0.95;;
33786;SDS011;29742;51.540;9.358;2023-08-12T06:38:53;0.85;;;0.55;;
33786;SDS011;29742;51.540;9.358;2023-08-12T06:43:54;1.38;;;0.90;;
33786;SDS011;29742;51.540;9.358;2023-08-12T06:48:54;0.93;;;0.85;;
33786;SDS011;29742;51.540;9.358;2023-08-12T06:53:54;0.93;;;0.80;;
33786;SDS011;29742;51.540;9.358;2023-08-12T06:58:55;1.08;;;0.80;;
33786;SDS011;29742;51.540;9.358;2023-08-12T07:03:55;1.40;;;0.80;;
33786;SDS011;29742;51.540;9.358;2023-08-12T07:08:56;2.33;;;0.90;;
33786;SDS011;29742;51.540;9.358;2023-08-12T07:13:57;1.25;;;0.95;;
33786;SDS011;29742;51.540;9.358;2023-08-12T07:18:57;0.85;;;0.75;;
33786;SDS011;29742;51.540;9.358;2023-08-12T07:23:57;0.68;;;0.60;;
33786;SDS011;29742;51.540;9.358;2023-08-12T07:28:58;2.92;;;0.98;;
33786;SDS011;29742;51.540;9.358;2023-08-12T07:33:58;2.47;;;1.00;;
33786;SDS011;29742;51.540;9.358;2023-08-12T07:38:58;1.02;;;0.75;;
33786;SDS011;29742;51.540;9.358;2023-08-12T07:43:59;0.93;;;0.82;;
33786;SDS011;29742;51.540;9.358;2023-08-12T07:48:59;0.95;;;0.77;;
33786;SDS011;29742;51.540;9.358;2023-08-12T07:54:00;1.30;;;0.98;;
33786;SDS011;29742;51.540;9.358;2023-08-12T07:59:00;3.10;;;1.30;;
33786;SDS011;29742;51.540;9.358;2023-08-12T08:04:00;3.28;;;1.40;;
33786;SDS011;29742;51.540;9.358;2023-08-12T08:09:01;2.90;;;1.20;;
33786;SDS011;29742;51.540;9.358;2023-08-12T08:14:03;2.60;;;1.38;;
33786;SDS011;29742;51.540;9.358;2023-08-12T08:19:04;1.08;;;0.98;;
33786;SDS011;29742;51.540;9.358;2023-08-12T08:24:04;1.73;;;1.33;;
33786;SDS011;29742;51.540;9.358;2023-08-12T08:29:05;2.90;;;1.58;;
33786;SDS011;29742;51.540;9.358;2023-08-12T08:34:05;3.00;;;1.40;;
33786;SDS011;29742;51.540;9.358;2023-08-12T08:39:06;2.30;;;1.60;;
33786;SDS011;29742;51.540;9.358;2023-08-12T08:44:07;2.53;;;1.67;;
33786;SDS011;29742;51.540;9.358;2023-08-12T08:49:08;3.13;;;1.80;;
33786;SDS011;29742;51.540;9.358;2023-08-12T08:54:09;2.10;;;1.48;;
33786;SDS011;29742;51.540;9.358;2023-08-12T08:59:10;1.27;;;1.17;;
33786;SDS011;29742;51.540;9.358;2023-08-12T09:04:10;1.30;;;1.20;;
33786;SDS011;29742;51.540;9.358;2023-08-12T09:09:12;1.10;;;1.00;;
33786;SDS011;29742;51.540;9.358;2023-08-12T09:14:14;1.20;;;1.10;;
33786;SDS011;29742;51.540;9.358;2023-08-12T09:19:14;1.35;;;1.25;;
33786;SDS011;29742;51.540;9.358;2023-08-12T09:24:15;2.28;;;1.25;;
33786;SDS011;29742;51.540;9.358;2023-08-12T09:29:15;1.92;;;1.25;;
33786;SDS011;29742;51.540;9.358;2023-08-12T09:34:16;1.45;;;1.27;;
33786;SDS011;29742;51.540;9.358;2023-08-12T09:39:17;1.55;;;1.38;;
33786;SDS011;29742;51.540;9.358;2023-08-12T09:44:19;2.80;;;1.40;;
33786;SDS011;29742;51.540;9.358;2023-08-12T09:49:19;1.92;;;1.38;;
33786;SDS011;29742;51.540;9.358;2023-08-12T09:54:20;1.35;;;1.25;;
33786;SDS011;29742;51.540;9.358;2023-08-12T09:59:21;1.42;;;1.00;;
33786;SDS011;29742;51.540;9.358;2023-08-12T10:04:22;1.52;;;1.38;;
33786;SDS011;29742;51.540;9.358;2023-08-12T10:09:24;3.83;;;2.08;;
33786;SDS011;29742;51.540;9.358;2023-08-12T10:14:25;1.48;;;1.38;;
33786;SDS011;29742;51.540;9.358;2023-08-12T10:19:26;1.67;;;1.25;;
33786;SDS011;29742;51.540;9.358;2023-08-12T10:24:26;1.38;;;1.27;;
33786;SDS011;29742;51.540;9.358;2023-08-12T10:29:27;3.45;;;1.50;;
33786;SDS011;29742;51.540;9.358;2023-08-12T10:34:30;1.77;;;1.50;;
33786;SDS011;29742;51.540;9.358;2023-08-12T10:39:31;1.17;;;1.08;;
33786;SDS011;29742;51.540;9.358;2023-08-12T10:44:39;1.70;;;1.20;;
33786;SDS011;29742;51.540;9.358;2023-08-12T10:49:43;2.50;;;1.30;;
33786;SDS011;29742;51.540;9.358;2023-08-12T10:54:45;2.35;;;1.30;;
33786;SDS011;29742;51.540;9.358;2023-08-12T11:04:51;3.73;;;1.43;;
33786;SDS011;29742;51.540;9.358;2023-08-12T11:09:52;1.27;;;1.20;;
33786;SDS011;29742;51.540;9.358;2023-08-12T11:14:53;1.30;;;1.15;;
33786;SDS011;29742;51.540;9.358;2023-08-12T11:19:53;1.45;;;1.33;;
33786;SDS011;29742;51.540;9.358;2023-08-12T11:24:55;1.45;;;1.30;;
33786;SDS011;29742;51.540;9.358;2023-08-12T11:29:55;1.48;;;1.20;;
33786;SDS011;29742;51.540;9.358;2023-08-12T11:34:56;1.20;;;1.10;;
33786;SDS011;29742;51.540;9.358;2023-08-12T11:39:56;1.38;;;1.02;;
33786;SDS011;29742;51.540;9.358;2023-08-12T11:44:56;1.40;;;1.00;;
33786;SDS011;29742;51.540;9.358;2023-08-12T11:49:57;0.95;;;0.82;;
33786;SDS011;29742;51.540;9.358;2023-08-12T11:54:57;1.23;;;0.98;;
33786;SDS011;29742;51.540;9.358;2023-08-12T11:59:58;1.73;;;1.15;;
33786;SDS011;29742;51.540;9.358;2023-08-12T12:04:59;1.00;;;0.90;;
33786;SDS011;29742;51.540;9.358;2023-08-12T12:10:00;3.20;;;1.15;;
33786;SDS011;29742;51.540;9.358;2023-08-12T12:15:00;1.08;;;0.98;;
33786;SDS011;29742;51.540;9.358;2023-08-12T12:20:01;1.08;;;0.85;;
33786;SDS011;29742;51.540;9.358;2023-08-12T12:25:08;0.82;;;0.68;;
33786;SDS011;29742;51.540;9.358;2023-08-12T12:30:12;2.58;;;1.10;;
33786;SDS011;29742;51.540;9.358;2023-08-12T12:35:13;1.00;;;0.80;;
33786;SDS011;29742;51.540;9.358;2023-08-12T12:40:14;1.13;;;1.00;;
33786;SDS011;29742;51.540;9.358;2023-08-12T12:45:14;1.30;;;0.98;;
33786;SDS011;29742;51.540;9.358;2023-08-12T12:50:14;0.80;;;0.80;;
33786;SDS011;29742;51.540;9.358;2023-08-12T12:55:15;0.73;;;0.70;;
33786;SDS011;29742;51.540;9.358;2023-08-12T13:00:15;0.75;;;0.75;;
33786;SDS011;29742;51.540;9.358;2023-08-12T13:05:16;1.15;;;0.88;;
33786;SDS011;29742;51.540;9.358;2023-08-12T13:10:16;0.65;;;0.65;;
33786;SDS011;29742;51.540;9.358;2023-08-12T13:15:16;0.43;;;0.43;;
33786;SDS011;29742;51.540;9.358;2023-08-12T13:20:17;0.77;;;0.63;;
33786;SDS011;29742;51.540;9.358;2023-08-12T13:25:17;0.80;;;0.80;;
33786;SDS011;29742;51.540;9.358;2023-08-12T13:30:18;0.90;;;0.80;;
33786;SDS011;29742;51.540;9.358;2023-08-12T13:35:18;1.10;;;0.75;;
33786;SDS011;29742;51.540;9.358;2023-08-12T13:40:19;0.95;;;0.80;;
33786;SDS011;29742;51.540;9.358;2023-08-12T13:45:19;0.80;;;0.60;;
33786;SDS011;29742;51.540;9.358;2023-08-12T13:50:20;0.63;;;0.63;;
33786;SDS011;29742;51.540;9.358;2023-08-12T13:55:20;0.50;;;0.50;;
33786;SDS011;29742;51.540;9.358;2023-08-12T14:00:21;0.60;;;0.50;;
33786;SDS011;29742;51.540;9.358;2023-08-12T14:05:22;0.68;;;0.60;;
33786;SDS011;29742;51.540;9.358;2023-08-12T14:10:22;0.95;;;0.70;;
33786;SDS011;29742;51.540;9.358;2023-08-12T14:15:23;0.90;;;0.70;;
33786;SDS011;29742;51.540;9.358;2023-08-12T14:20:23;0.65;;;0.55;;
33786;SDS011;29742;51.540;9.358;2023-08-12T14:25:23;0.88;;;0.70;;
33786;SDS011;29742;51.540;9.358;2023-08-12T14:30:24;0.50;;;0.50;;
33786;SDS011;29742;51.540;9.358;2023-08-12T14:35:27;0.40;;;0.40;;
33786;SDS011;29742;51.540;9.358;2023-08-12T14:40:28;2.22;;;0.43;;
33786;SDS011;29742;51.540;9.358;2023-08-12T14:45:28;0.57;;;0.57;;
33786;SDS011;29742;51.540;9.358;2023-08-12T14:50:29;0.52;;;0.52;;
33786;SDS011;29742;51.540;9.358;2023-08-12T14:55:29;0.63;;;0.57;;
33786;SDS011;29742;51.540;9.358;2023-08-12T15:00:29;1.70;;;0.75;;
33786;SDS011;29742;51.540;9.358;2023-08-12T15:05:30;0.93;;;0.60;;
33786;SDS011;29742;51.540;9.358;2023-08-12T15:10:30;0.57;;;0.50;;
33786;SDS011;29742;51.540;9.358;2023-08-12T15:15:31;0.47;;;0.45;;
33786;SDS011;29742;51.540;9.358;2023-08-12T15:20:31;1.00;;;0.45;;
33786;SDS011;29742;51.540;9.358;2023-08-12T15:25:32;0.45;;;0.40;;
33786;SDS011;29742;51.540;9.358;2023-08-12T15:30:32;0.43;;;0.32;;
33786;SDS011;29742;51.540;9.358;2023-08-12T15:35:33;0.35;;;0.35;;
33786;SDS011;29742;51.540;9.358;2023-08-12T15:40:36;0.45;;;0.40;;
33786;SDS011;29742;51.540;9.358;2023-08-12T15:45:37;0.30;;;0.30;;
33786;SDS011;29742;51.540;9.358;2023-08-12T15:50:39;0.40;;;0.40;;
33786;SDS011;29742;51.540;9.358;2023-08-12T15:55:42;0.50;;;0.50;;
33786;SDS011;29742;51.540;9.358;2023-08-12T16:00:43;1.23;;;0.60;;
33786;SDS011;29742;51.540;9.358;2023-08-12T16:05:43;0.43;;;0.43;;
33786;SDS011;29742;51.540;9.358;2023-08-12T16:10:44;0.40;;;0.38;;
33786;SDS011;29742;51.540;9.358;2023-08-12T16:15:44;0.32;;;0.32;;
33786;SDS011;29742;51.540;9.358;2023-08-12T16:20:45;0.43;;;0.43;;
33786;SDS011;29742;51.540;9.358;2023-08-12T16:25:45;0.50;;;0.32;;
33786;SDS011;29742;51.540;9.358;2023-08-12T16:30:46;0.52;;;0.45;;
33786;SDS011;29742;51.540;9.358;2023-08-12T16:35:46;0.50;;;0.50;;
33786;SDS011;29742;51.540;9.358;2023-08-12T16:40:48;0.43;;;0.43;;
33786;SDS011;29742;51.540;9.358;2023-08-12T16:45:49;0.30;;;0.30;;
33786;SDS011;29742;51.540;9.358;2023-08-12T16:50:49;3.55;;;0.22;;
33786;SDS011;29742;51.540;9.358;2023-08-12T16:55:50;0.40;;;0.40;;
33786;SDS011;29742;51.540;9.358;2023-08-12T17:00:50;0.30;;;0.28;;
33786;SDS011;29742;51.540;9.358;2023-08-12T17:05:50;0.35;;;0.30;;
33786;SDS011;29742;51.540;9.358;2023-08-12T17:10:51;0.20;;;0.20;;
33786;SDS011;29742;51.540;9.358;2023-08-12T17:15:51;0.80;;;0.28;;
33786;SDS011;29742;51.540;9.358;2023-08-12T17:20:52;1.75;;;0.50;;
33786;SDS011;29742;51.540;9.358;2023-08-12T17:25:52;2.15;;;0.30;;
33786;SDS011;29742;51.540;9.358;2023-08-12T17:30:52;0.65;;;0.20;;
33786;SDS011;29742;51.540;9.358;2023-08-12T17:35:53;0.30;;;0.30;;
33786;SDS011;29742;51.540;9.358;2023-08-12T17:40:53;0.30;;;0.28;;
33786;SDS011;29742;51.540;9.358;2023-08-12T17:45:54;0.20;;;0.20;;
33786;SDS011;29742;51.540;9.358;2023-08-12T17:50:54;0.20;;;0.20;;
33786;SDS011;29742;51.540;9.358;2023-08-12T17:55:54;0.35;;;0.25;;
33786;SDS011;29742;51.540;9.358;2023-08-12T18:00:55;0.30;;;0.20;;
33786;SDS011;29742;51.540;9.358;2023-08-12T18:05:55;0.60;;;0.30;;
33786;SDS011;29742;51.540;9.358;2023-08-12T18:10:56;0.40;;;0.20;;
33786;SDS011;29742;51.540;9.358;2023-08-12T18:15:56;0.30;;;0.30;;
33786;SDS011;29742;51.540;9.358;2023-08-12T18:20:56;0.32;;;0.20;;
33786;SDS011;29742;51.540;9.358;2023-08-12T18:25:57;0.63;;;0.50;;
33786;SDS011;29742;51.540;9.358;2023-08-12T18:30:57;0.30;;;0.30;;
33786;SDS011;29742;51.540;9.358;2023-08-12T18:35:58;0.13;;;0.13;;
33786;SDS011;29742;51.540;9.358;2023-08-12T18:40:58;0.22;;;0.20;;
33786;SDS011;29742;51.540;9.358;2023-08-12T18:45:58;0.17;;;0.10;;
33786;SDS011;29742;51.540;9.358;2023-08-12T18:50:59;0.20;;;0.13;;
33786;SDS011;29742;51.540;9.358;2023-08-12T18:55:59;0.38;;;0.20;;
33786;SDS011;29742;51.540;9.358;2023-08-12T19:01:00;0.15;;;0.15;;
33786;SDS011;29742;51.540;9.358;2023-08-12T19:06:00;0.20;;;0.20;;
33786;SDS011;29742;51.540;9.358;2023-08-12T19:11:00;0.47;;;0.30;;
33786;SDS011;29742;51.540;9.358;2023-08-12T19:16:01;0.30;;;0.28;;
33786;SDS011;29742;51.540;9.358;2023-08-12T19:21:01;0.88;;;0.57;;
33786;SDS011;29742;51.540;9.358;2023-08-12T19:26:02;0.20;;;0.20;;
33786;SDS011;29742;51.540;9.358;2023-08-12T19:31:03;0.73;;;0.25;;
33786;SDS011;29742;51.540;9.358;2023-08-12T19:36:03;0.30;;;0.30;;
33786;SDS011;29742;51.540;9.358;2023-08-12T19:41:04;0.20;;;0.20;;
33786;SDS011;29742;51.540;9.358;2023-08-12T19:46:04;0.40;;;0.30;;
33786;SDS011;29742;51.540;9.358;2023-08-12T19:51:04;0.10;;;0.10;;
33786;SDS011;29742;51.540;9.358;2023-08-12T19:56:05;0.20;;;0.20;;
33786;SDS011;29742;51.540;9.358;2023-08-12T20:01:05;0.20;;;0.20;;
33786;SDS011;29742;51.540;9.358;2023-08-12T20:06:06;0.22;;;0.22;;
33786;SDS011;29742;51.540;9.358;2023-08-12T20:11:10;0.20;;;0.20;;
33786;SDS011;29742;51.540;9.358;2023-08-12T20:16:10;0.20;;;0.20;;
33786;SDS011;29742;51.540;9.358;2023-08-12T20:21:11;0.10;;;0.10;;
33786;SDS011;29742;51.540;9.358;2023-08-12T20:26:11;0.30;;;0.30;;
33786;SDS011;29742;51.540;9.358;2023-08-12T20:31:11;2.80;;;0.28;;
33786;SDS011;29742;51.540;9.358;2023-08-12T20:36:12;0.20;;;0.20;;
33786;SDS011;29742;51.540;9.358;2023-08-12T20:41:12;0.32;;;0.30;;
33786;SDS011;29742;51.540;9.358;2023-08-12T20:46:13;0.40;;;0.40;;
33786;SDS011;29742;51.540;9.358;2023-08-12T20:51:13;0.20;;;0.20;;
33786;SDS011;29742;51.540;9.358;2023-08-12T20:56:14;1.95;;;0.30;;
33786;SDS011;29742;51.540;9.358;2023-08-12T21:01:14;0.30;;;0.30;;
33786;SDS011;29742;51.540;9.358;2023-08-12T21:06:14;0.43;;;0.40;;
33786;SDS011;29742;51.540;9.358;2023-08-12T21:11:15;0.08;;;0.08;;
33786;SDS011;29742;51.540;9.358;2023-08-12T21:16:16;0.10;;;0.10;;
33786;SDS011;29742;51.540;9.358;2023-08-12T21:21:16;0.10;;;0.10;;
33786;SDS011;29742;51.540;9.358;2023-08-12T21:26:16;0.30;;;0.25;;
33786;SDS011;29742;51.540;9.358;2023-08-12T21:31:17;0.20;;;0.20;;
33786;SDS011;29742;51.540;9.358;2023-08-12T21:36:17;0.15;;;0.15;;
33786;SDS011;29742;51.540;9.358;2023-08-12T21:41:18;0.20;;;0.20;;
33786;SDS011;29742;51.540;9.358;2023-08-12T21:46:18;0.10;;;0.10;;
33786;SDS011;29742;51.540;9.358;2023-08-12T21:51:20;0.57;;;0.40;;
33786;SDS011;29742;51.540;9.358;2023-08-12T21:56:22;0.28;;;0.25;;
33786;SDS011;29742;51.540;9.358;2023-08-12T22:01:22;0.60;;;0.20;;
33786;SDS011;29742;51.540;9.358;2023-08-12T22:06:23;0.20;;;0.20;;
33786;SDS011;29742;51.540;9.358;2023-08-12T22:11:23;0.40;;;0.40;;
33786;SDS011;29742;51.540;9.358;2023-08-12T22:16:26;0.30;;;0.28;;
33786;SDS011;29742;51.540;9.358;2023-08-12T22:21:26;0.30;;;0.30;;
33786;SDS011;29742;51.540;9.358;2023-08-12T22:26:27;0.30;;;0.30;;
33786;SDS011;29742;51.540;9.358;2023-08-12T22:31:27;0.55;;;0.25;;
33786;SDS011;29742;51.540;9.358;2023-08-12T22:36:27;0.25;;;0.25;;
33786;SDS011;29742;51.540;9.358;2023-08-12T22:41:28;0.20;;;0.20;;
33786;SDS011;29742;51.540;9.358;2023-08-12T22:46:28;0.52;;;0.40;;
33786;SDS011;29742;51.540;9.358;2023-08-12T22:51:29;0.40;;;0.40;;
33786;SDS011;29742;51.540;9.358;2023-08-12T22:56:29;0.30;;;0.30;;
33786;SDS011;29742;51.540;9.358;2023-08-12T23:01:30;0.30;;;0.30;;
33786;SDS011;29742;51.540;9.358;2023-08-12T23:06:30;0.60;;;0.40;;
33786;SDS011;29742;51.540;9.358;2023-08-12T23:11:31;0.22;;;0.22;;
33786;SDS011;29742;51.540;9.358;2023-08-12T23:16:31;0.47;;;0.32;;
33786;SDS011;29742;51.540;9.358;2023-08-12T23:21:31;0.88;;;0.40;;
33786;SDS011;29742;51.540;9.358;2023-08-12T23:26:32;0.50;;;0.50;;
33786;SDS011;29742;51.540;9.358;2023-08-12T23:31:32;1.92;;;0.28;;
33786;SDS011;29742;51.540;9.358;2023-08-12T23:36:33;0.30;;;0.30;;
33786;SDS011;29742;51.540;9.358;2023-08-12T23:41:33;0.20;;;0.20;;
33786;SDS011;29742;51.540;9.358;2023-08-12T23:46:33;0.32;;;0.32;;
33786;SDS011;29742;51.540;9.358;2023-08-12T23:51:34;0.50;;;0.50;;
33786;SDS011;29742;51.540;9.358;2023-08-12T23:56:34;0.43;;;0.32;;
